createdAt,value
2018-12-16T00:01:35.937Z,71.10
2018-12-16T00:04:04.870Z,71.07
2018-12-16T00:06:33.736Z,71.19
2018-12-16T00:09:03.112Z,71.67
2018-12-16T00:11:31.893Z,71.89
2018-12-16T00:14:00.679Z,71.85
2018-12-16T00:16:30.083Z,71.84
2018-12-16T00:23:58.820Z,72.04
2018-12-16T00:27:35.130Z,71.85
2018-12-16T00:30:04.556Z,72.50
2018-12-16T00:32:33.330Z,72.47
2018-12-16T00:35:02.088Z,72.57
2018-12-16T00:37:31.055Z,71.93
2018-12-16T00:40:01.147Z,72.16
2018-12-16T00:42:30.232Z,71.89
2018-12-16T00:45:01.240Z,72.02
2018-12-16T00:47:30.717Z,72.29
2018-12-16T00:49:59.925Z,72.40
2018-12-16T00:52:28.760Z,72.30
2018-12-16T00:54:57.711Z,72.11
2018-12-16T00:57:26.439Z,72.15
2018-12-16T00:59:55.304Z,71.63
2018-12-16T01:02:29.291Z,71.86
2018-12-16T01:04:58.207Z,72.41
2018-12-16T01:07:27.205Z,72.26
2018-12-16T01:09:55.965Z,72.29
2018-12-16T01:12:25.011Z,72.58
2018-12-16T01:14:53.821Z,72.07
2018-12-16T01:17:22.650Z,72.36
2018-12-16T01:19:51.531Z,72.64
2018-12-16T01:22:20.279Z,72.32
2018-12-16T01:24:49.096Z,72.93
2018-12-16T01:27:18.055Z,73.14
2018-12-16T01:29:46.755Z,73.10
2018-12-16T01:32:15.516Z,73.68
2018-12-16T01:34:44.341Z,73.52
2018-12-16T01:37:13.076Z,73.32
2018-12-16T01:39:41.791Z,72.96
2018-12-16T01:42:10.760Z,72.91
2018-12-16T01:44:39.597Z,73.57
2018-12-16T01:47:08.396Z,73.73
2018-12-16T01:49:37.347Z,73.86
2018-12-16T01:52:06.258Z,73.77
2018-12-16T01:54:35.133Z,73.79
2018-12-16T01:57:04.078Z,73.46
2018-12-16T01:59:33.495Z,73.42
2018-12-16T02:02:02.192Z,74.18
2018-12-16T02:04:31.126Z,73.53
2018-12-16T02:07:00.242Z,73.71
2018-12-16T02:09:28.986Z,73.52
2018-12-16T02:11:57.799Z,73.20
2018-12-16T02:14:26.585Z,72.87
2018-12-16T02:16:55.628Z,73.05
2018-12-16T02:19:24.524Z,73.77
2018-12-16T02:21:53.272Z,73.84
2018-12-16T02:24:22.537Z,73.90
2018-12-16T02:26:51.380Z,73.89
2018-12-16T02:29:20.237Z,73.39
2018-12-16T02:31:49.108Z,73.51
2018-12-16T02:34:17.968Z,73.23
2018-12-16T02:36:46.715Z,73.32
2018-12-16T02:39:15.394Z,73.35
2018-12-16T02:41:44.281Z,73.16
2018-12-16T02:44:13.079Z,73.10
2018-12-16T02:46:41.848Z,73.15
2018-12-16T02:49:11.009Z,72.56
2018-12-16T02:51:39.701Z,72.79
2018-12-16T02:54:10.095Z,72.76
2018-12-16T02:56:38.952Z,72.97
2018-12-16T02:59:07.707Z,72.81
2018-12-16T03:01:36.464Z,73.07
2018-12-16T03:04:05.365Z,72.74
2018-12-16T03:06:34.209Z,72.71
2018-12-16T03:09:02.944Z,72.85
2018-12-16T03:11:31.782Z,72.55
2018-12-16T03:14:00.433Z,72.74
2018-12-16T03:16:29.088Z,72.50
2018-12-16T03:18:57.976Z,73.10
2018-12-16T03:21:26.764Z,72.42
2018-12-16T03:23:55.520Z,72.25
2018-12-16T03:26:26.071Z,72.43
2018-12-16T03:28:54.957Z,72.35
2018-12-16T03:31:23.730Z,72.19
2018-12-16T03:33:52.655Z,72.85
2018-12-16T03:36:21.480Z,71.91
2018-12-16T03:38:50.207Z,71.69
2018-12-16T03:41:19.168Z,72.56
2018-12-16T03:43:47.885Z,72.24
2018-12-16T03:46:16.638Z,71.82
2018-12-16T03:48:45.803Z,71.37
2018-12-16T03:51:14.457Z,72.02
2018-12-16T03:53:43.271Z,72.09
2018-12-16T03:56:12.139Z,71.79
2018-12-16T03:58:50.777Z,71.75
2018-12-16T04:01:19.612Z,71.70
2018-12-16T04:03:48.342Z,71.93
2018-12-16T04:06:17.152Z,71.76
2018-12-16T04:08:46.077Z,72.15
2018-12-16T04:11:14.837Z,71.77
2018-12-16T04:13:43.728Z,71.54
2018-12-16T04:16:12.470Z,71.82
2018-12-16T04:18:41.149Z,71.92
2018-12-16T04:21:09.809Z,72.02
2018-12-16T04:23:38.692Z,71.21
2018-12-16T04:26:07.492Z,71.47
2018-12-16T04:28:36.309Z,70.83
2018-12-16T04:31:05.280Z,70.97
2018-12-16T04:33:34.087Z,71.36
2018-12-16T04:36:02.723Z,71.52
2018-12-16T04:38:31.489Z,71.48
2018-12-16T04:41:00.300Z,71.86
2018-12-16T04:43:28.987Z,71.73
2018-12-16T04:45:58.079Z,71.36
2018-12-16T04:48:26.816Z,71.07
2018-12-16T04:50:56.324Z,70.77
2018-12-16T04:53:25.184Z,70.39
2018-12-16T04:55:55.470Z,71.14
2018-12-16T04:58:25.406Z,70.91
2018-12-16T05:00:54.316Z,71.40
2018-12-16T05:03:23.071Z,71.53
2018-12-16T05:05:51.891Z,71.75
2018-12-16T05:08:20.674Z,71.87
2018-12-16T05:10:49.433Z,71.78
2018-12-16T05:13:18.141Z,71.25
2018-12-16T05:15:47.000Z,71.46
2018-12-16T05:18:15.742Z,71.62
2018-12-16T05:20:44.448Z,71.23
2018-12-16T05:23:13.198Z,71.10
2018-12-16T05:25:41.905Z,71.16
2018-12-16T05:28:10.681Z,71.44
2018-12-16T05:30:39.602Z,71.08
2018-12-16T05:33:08.352Z,70.92
2018-12-16T05:35:37.051Z,70.25
2018-12-16T05:38:05.749Z,70.51
2018-12-16T05:40:34.465Z,70.20
2018-12-16T05:43:03.210Z,69.88
2018-12-16T05:45:32.064Z,69.64
2018-12-16T05:48:00.789Z,69.62
2018-12-16T05:50:30.565Z,69.11
2018-12-16T05:52:59.455Z,68.64
2018-12-16T05:55:28.116Z,68.26
2018-12-16T05:57:56.831Z,68.52
2018-12-16T06:00:25.789Z,68.14
2018-12-16T06:02:54.495Z,68.34
2018-12-16T06:05:23.365Z,68.76
2018-12-16T06:07:52.261Z,68.82
2018-12-16T06:10:21.055Z,68.81
2018-12-16T06:12:49.807Z,69.02
2018-12-16T06:15:20.188Z,69.50
2018-12-16T06:17:48.957Z,69.03
2018-12-16T06:20:17.810Z,69.33
2018-12-16T06:22:46.599Z,69.64
2018-12-16T06:25:15.285Z,69.55
2018-12-16T06:27:43.927Z,69.76
2018-12-16T06:30:13.375Z,69.69
2018-12-16T06:32:42.165Z,69.80
2018-12-16T06:35:10.955Z,69.65
2018-12-16T06:37:39.844Z,69.99
2018-12-16T06:40:08.786Z,70.32
2018-12-16T06:42:37.524Z,70.18
2018-12-16T06:45:07.056Z,70.59
2018-12-16T06:47:35.837Z,70.64
2018-12-16T06:50:05.219Z,71.00
2018-12-16T06:52:34.448Z,71.21
2018-12-16T06:55:03.316Z,70.76
2018-12-16T06:57:32.098Z,70.79
2018-12-16T07:00:00.812Z,70.94
2018-12-16T07:02:29.593Z,70.52
2018-12-16T07:04:58.391Z,70.29
2018-12-16T07:07:27.316Z,70.35
2018-12-16T07:09:56.161Z,70.86
2018-12-16T07:12:24.957Z,70.38
2018-12-16T07:14:53.971Z,70.59
2018-12-16T07:17:22.866Z,70.75
2018-12-16T07:19:51.629Z,70.62
2018-12-16T07:22:20.501Z,70.19
2018-12-16T07:24:49.180Z,70.92
2018-12-16T07:27:17.976Z,70.72
2018-12-16T07:29:47.306Z,71.19
2018-12-16T07:32:16.084Z,71.02
2018-12-16T07:34:44.815Z,71.14
2018-12-16T07:37:19.014Z,70.57
2018-12-16T07:39:44.487Z,70.98
2018-12-16T07:42:13.221Z,70.75
2018-12-16T07:44:42.175Z,70.66
2018-12-16T07:47:10.943Z,70.54
2018-12-16T07:49:39.718Z,70.17
2018-12-16T07:52:08.447Z,70.11
2018-12-16T07:54:37.222Z,69.97
2018-12-16T07:57:06.132Z,69.38
2018-12-16T07:59:35.107Z,69.35
2018-12-16T08:02:03.822Z,69.15
2018-12-16T08:04:32.612Z,69.19
2018-12-16T08:07:01.449Z,69.10
2018-12-16T08:09:30.629Z,69.54
2018-12-16T08:11:59.513Z,69.44
2018-12-16T08:14:28.252Z,69.23
2018-12-16T08:16:57.057Z,69.07
2018-12-16T08:19:25.699Z,68.73
2018-12-16T08:21:54.554Z,68.91
2018-12-16T08:24:23.551Z,68.29
2018-12-16T08:26:52.357Z,68.22
2018-12-16T08:29:21.248Z,67.94
2018-12-16T08:31:50.036Z,67.96
2018-12-16T08:34:18.867Z,67.84
2018-12-16T08:36:47.763Z,67.43
2018-12-16T08:39:16.479Z,66.91
2018-12-16T08:41:45.173Z,66.88
2018-12-16T08:44:13.987Z,66.85
2018-12-16T08:46:42.708Z,66.83
2018-12-16T08:49:11.376Z,66.52
2018-12-16T08:51:40.496Z,65.93
2018-12-16T08:54:09.260Z,65.22
2018-12-16T08:56:37.980Z,65.63
2018-12-16T08:59:07.280Z,64.80
2018-12-16T09:01:36.100Z,64.58
2018-12-16T09:04:04.802Z,64.82
2018-12-16T09:06:33.602Z,64.95
2018-12-16T09:09:02.452Z,64.92
2018-12-16T09:11:31.166Z,64.67
2018-12-16T09:14:00.867Z,64.60
2018-12-16T09:16:29.538Z,64.11
2018-12-16T09:18:58.306Z,63.94
2018-12-16T09:21:27.228Z,63.89
2018-12-16T09:23:55.997Z,63.97
2018-12-16T09:26:24.716Z,63.58
2018-12-16T09:28:53.564Z,63.35
2018-12-16T09:31:22.295Z,63.18
2018-12-16T09:33:51.038Z,63.52
2018-12-16T09:36:19.712Z,63.14
2018-12-16T09:38:48.530Z,63.06
2018-12-16T09:41:17.288Z,62.65
2018-12-16T09:43:46.175Z,61.97
2018-12-16T09:46:14.915Z,62.08
2018-12-16T09:48:43.753Z,62.13
2018-12-16T09:51:12.854Z,61.84
2018-12-16T09:53:41.678Z,61.33
2018-12-16T09:56:10.405Z,61.26
2018-12-16T09:58:39.347Z,60.87
2018-12-16T10:01:08.342Z,60.87
2018-12-16T10:03:37.242Z,60.66
2018-12-16T10:06:06.098Z,60.74
2018-12-16T10:08:34.882Z,61.20
2018-12-16T10:11:03.675Z,61.16
2018-12-16T10:13:34.846Z,60.65
2018-12-16T10:16:03.609Z,60.40
2018-12-16T10:18:32.343Z,60.17
2018-12-16T10:21:01.215Z,59.76
2018-12-16T10:23:30.789Z,59.64
2018-12-16T10:25:59.528Z,59.76
2018-12-16T10:28:28.677Z,59.99
2018-12-16T10:30:57.337Z,59.86
2018-12-16T10:33:26.090Z,60.15
2018-12-16T10:35:55.159Z,59.65
2018-12-16T10:38:23.969Z,59.72
2018-12-16T10:40:52.715Z,59.54
2018-12-16T10:43:21.721Z,59.69
2018-12-16T10:45:50.519Z,59.77
2018-12-16T10:48:19.184Z,59.60
2018-12-16T10:50:48.117Z,59.25
2018-12-16T10:53:16.835Z,59.36
2018-12-16T10:55:45.523Z,59.06
2018-12-16T10:58:14.404Z,58.94
2018-12-16T11:00:48.260Z,58.78
2018-12-16T11:03:17.452Z,58.17
2018-12-16T11:05:46.103Z,57.96
2018-12-16T11:08:14.819Z,57.74
2018-12-16T11:10:43.749Z,57.79
2018-12-16T11:13:12.543Z,57.85
2018-12-16T11:15:41.434Z,57.09
2018-12-16T11:18:10.421Z,57.46
2018-12-16T11:20:39.228Z,56.89
2018-12-16T11:23:08.000Z,57.15
2018-12-16T11:25:40.135Z,57.21
2018-12-16T11:28:08.917Z,57.04
2018-12-16T11:30:37.610Z,56.48
2018-12-16T11:33:06.335Z,56.82
2018-12-16T11:35:35.109Z,56.74
2018-12-16T11:38:03.841Z,56.72
2018-12-16T11:40:33.019Z,56.73
2018-12-16T11:43:01.710Z,56.91
2018-12-16T11:45:31.879Z,56.69
2018-12-16T11:48:01.279Z,56.32
2018-12-16T11:50:30.958Z,56.63
2018-12-16T11:52:59.708Z,56.41
2018-12-16T11:55:28.713Z,56.49
2018-12-16T11:58:00.505Z,56.41
2018-12-16T12:00:29.271Z,56.84
2018-12-16T12:02:58.001Z,56.57
2018-12-16T12:05:26.948Z,56.41
2018-12-16T12:07:55.882Z,55.97
2018-12-16T12:10:24.598Z,56.27
2018-12-16T12:12:53.393Z,55.77
2018-12-16T12:15:22.267Z,55.74
2018-12-16T12:17:50.940Z,56.06
2018-12-16T12:20:19.745Z,56.54
2018-12-16T12:22:49.231Z,56.23
2018-12-16T12:25:20.056Z,56.40
2018-12-16T12:27:48.826Z,56.13
2018-12-16T12:30:17.884Z,56.46
2018-12-16T12:32:49.156Z,56.17
2018-12-16T12:35:17.494Z,56.17
2018-12-16T12:37:46.493Z,56.91
2018-12-16T12:40:15.525Z,57.10
2018-12-16T12:42:44.273Z,56.79
2018-12-16T12:45:13.008Z,57.33
2018-12-16T12:47:41.724Z,56.90
2018-12-16T12:50:10.683Z,57.06
2018-12-16T12:52:39.583Z,57.63
2018-12-16T12:55:08.641Z,57.65
2018-12-16T12:57:37.417Z,57.53
2018-12-16T13:00:10.173Z,57.26
2018-12-16T13:02:39.001Z,57.16
2018-12-16T13:05:07.875Z,57.28
2018-12-16T13:07:36.864Z,56.85
2018-12-16T13:10:07.297Z,56.96
2018-12-16T13:12:36.036Z,56.83
2018-12-16T13:15:05.232Z,57.40
2018-12-16T13:17:34.063Z,57.53
2018-12-16T13:20:04.102Z,57.40
2018-12-16T13:22:32.970Z,57.35
2018-12-16T13:25:12.687Z,57.34
2018-12-16T13:27:42.031Z,57.26
2018-12-16T13:30:11.413Z,57.59
2018-12-16T13:32:40.180Z,58.20
2018-12-16T13:35:09.070Z,57.74
2018-12-16T13:37:37.848Z,59.15
2018-12-16T13:40:07.909Z,57.65
2018-12-16T13:42:36.840Z,57.61
2018-12-16T13:45:06.611Z,57.98
2018-12-16T13:47:35.590Z,57.67
2018-12-16T13:50:05.505Z,57.59
2018-12-16T13:52:34.287Z,57.98
2018-12-16T13:55:03.165Z,57.68
2018-12-16T13:57:33.138Z,57.43
2018-12-16T14:00:01.925Z,57.94
2018-12-16T14:02:31.085Z,57.52
2018-12-16T14:04:59.904Z,57.99
2018-12-16T14:07:28.680Z,57.72
2018-12-16T14:09:57.700Z,57.47
2018-12-16T14:12:26.549Z,57.30
2018-12-16T14:14:55.317Z,57.41
2018-12-16T14:17:24.126Z,57.70
2018-12-16T14:19:53.011Z,57.26
2018-12-16T14:22:21.807Z,58.32
2018-12-16T14:24:50.579Z,57.46
2018-12-16T14:27:19.398Z,58.05
2018-12-16T14:29:48.169Z,57.58
2018-12-16T14:32:16.823Z,58.18
2018-12-16T14:34:45.806Z,58.75
2018-12-16T14:37:14.561Z,57.27
2018-12-16T14:39:43.396Z,58.03
2018-12-16T14:42:12.211Z,59.20
2018-12-16T14:44:40.918Z,59.17
2018-12-16T14:47:09.708Z,60.29
2018-12-16T14:49:38.553Z,62.59
2018-12-16T14:52:07.270Z,63.17
2018-12-16T14:54:38.105Z,63.46
2018-12-16T14:57:07.665Z,64.43
2018-12-16T14:59:36.513Z,63.96
2018-12-16T15:02:05.291Z,64.45
2018-12-16T15:04:34.520Z,64.69
2018-12-16T15:07:03.314Z,65.20
2018-12-16T15:09:32.062Z,65.31
2018-12-16T15:12:01.403Z,65.09
2018-12-16T15:14:30.271Z,65.66
2018-12-16T15:16:58.969Z,66.42
2018-12-16T15:19:27.765Z,65.97
2018-12-16T15:21:56.647Z,65.85
2018-12-16T15:24:25.426Z,66.02
2018-12-16T15:26:54.460Z,66.18
2018-12-16T15:29:23.498Z,66.10
2018-12-16T15:31:52.234Z,65.39
2018-12-16T15:34:20.971Z,65.93
2018-12-16T15:36:49.644Z,64.89
2018-12-16T15:39:18.635Z,64.94
2018-12-16T15:41:47.489Z,64.64
2018-12-16T15:44:16.232Z,64.98
2018-12-16T15:46:45.022Z,65.23
2018-12-16T15:49:14.059Z,64.25
2018-12-16T15:51:42.978Z,64.65
2018-12-16T15:54:11.802Z,63.73
2018-12-16T15:56:40.684Z,63.68
2018-12-16T15:59:09.381Z,63.83
2018-12-16T16:01:38.164Z,63.61
2018-12-16T16:04:07.160Z,63.27
2018-12-16T16:06:38.004Z,63.61
2018-12-16T16:09:08.670Z,63.69
2018-12-16T16:11:37.419Z,63.15
2018-12-16T16:14:06.591Z,63.15
2018-12-16T16:16:35.515Z,62.77
2018-12-16T16:19:04.476Z,62.34
2018-12-16T16:21:33.297Z,62.28
2018-12-16T16:24:03.130Z,62.01
2018-12-16T16:26:31.891Z,62.00
2018-12-16T16:29:01.367Z,62.27
2018-12-16T16:31:30.564Z,61.85
2018-12-16T16:33:59.349Z,62.04
2018-12-16T16:36:28.122Z,61.74
2018-12-16T16:38:56.894Z,61.35
2018-12-16T16:41:25.639Z,61.49
2018-12-16T16:43:54.361Z,62.55
2018-12-16T16:46:23.613Z,61.87
2018-12-16T16:48:52.408Z,61.52
2018-12-16T16:51:21.172Z,62.20
2018-12-16T16:53:50.233Z,62.18
2018-12-16T16:56:23.024Z,62.94
2018-12-16T16:58:49.696Z,62.49
2018-12-16T17:01:18.571Z,62.45
2018-12-16T17:03:47.284Z,62.60
2018-12-16T17:06:16.140Z,62.68
2018-12-16T17:08:44.872Z,62.60
2018-12-16T17:11:13.642Z,62.73
2018-12-16T17:13:42.406Z,62.11
2018-12-16T17:16:11.959Z,62.45
2018-12-16T17:18:41.187Z,62.18
2018-12-16T17:21:09.872Z,62.36
2018-12-16T17:23:38.657Z,62.98
2018-12-16T17:26:07.466Z,62.94
2018-12-16T17:28:36.205Z,63.26
2018-12-16T17:31:05.888Z,63.24
2018-12-16T17:33:35.018Z,63.43
2018-12-16T17:36:03.800Z,63.62
2018-12-16T17:38:33.008Z,63.40
2018-12-16T17:41:01.737Z,63.93
2018-12-16T17:43:31.632Z,64.03
2018-12-16T17:46:00.768Z,65.47
2018-12-16T17:48:29.431Z,65.10
2018-12-16T17:50:58.158Z,65.39
2018-12-16T17:53:26.921Z,65.89
2018-12-16T17:55:55.721Z,66.23
2018-12-16T17:58:25.172Z,65.81
2018-12-16T18:00:54.247Z,67.17
2018-12-16T18:03:23.079Z,67.41
2018-12-16T18:05:51.850Z,67.47
2018-12-16T18:08:20.760Z,66.90
2018-12-16T18:10:49.795Z,67.53
2018-12-16T18:13:18.544Z,67.74
2018-12-16T18:15:47.360Z,68.09
2018-12-16T18:18:16.500Z,68.26
2018-12-16T18:20:45.357Z,68.29
2018-12-16T18:23:14.369Z,68.57
2018-12-16T18:25:43.120Z,69.00
2018-12-16T18:28:12.046Z,68.53
2018-12-16T18:30:41.146Z,68.62
2018-12-16T18:33:10.615Z,69.12
2018-12-16T18:35:39.475Z,69.44
2018-12-16T18:38:08.404Z,68.87
2018-12-16T18:40:37.360Z,68.78
2018-12-16T18:43:06.276Z,68.93
2018-12-16T18:45:35.553Z,69.27
2018-12-16T18:48:05.120Z,69.07
2018-12-16T18:50:34.215Z,69.21
2018-12-16T18:53:03.150Z,69.13
2018-12-16T18:55:32.060Z,69.99
2018-12-16T18:58:01.821Z,69.02
2018-12-16T19:00:30.715Z,69.02
2018-12-16T19:02:59.556Z,69.37
2018-12-16T19:05:28.433Z,69.40
2018-12-16T19:07:57.440Z,69.04
2018-12-16T19:10:26.187Z,69.57
2018-12-16T19:12:54.983Z,68.87
2018-12-16T19:15:24.134Z,69.26
2018-12-16T19:17:53.041Z,69.25
2018-12-16T19:20:22.147Z,68.91
2018-12-16T19:22:51.078Z,68.75
2018-12-16T19:25:19.823Z,69.29
2018-12-16T19:27:49.095Z,69.02
2018-12-16T19:30:18.373Z,69.64
2018-12-16T19:32:47.226Z,68.96
2018-12-16T19:35:18.098Z,69.13
2018-12-16T19:37:47.006Z,69.80
2018-12-16T19:40:16.197Z,69.54
2018-12-16T19:42:45.497Z,69.25
2018-12-16T19:45:14.615Z,68.90
2018-12-16T19:47:49.408Z,69.55
2018-12-16T19:50:14.433Z,69.30
2018-12-16T19:52:43.426Z,69.22
2018-12-16T19:55:12.287Z,68.95
2018-12-16T19:57:41.466Z,69.24
2018-12-16T20:00:10.903Z,69.39
2018-12-16T20:02:40.416Z,69.92
2018-12-16T20:05:13.747Z,69.29
2018-12-16T20:07:42.757Z,69.74
2018-12-16T20:10:11.733Z,69.73
2018-12-16T20:12:40.644Z,69.89
2018-12-16T20:15:09.661Z,70.17
2018-12-16T20:17:38.582Z,71.05
2018-12-16T20:20:08.906Z,70.63
2018-12-16T20:22:37.894Z,70.60
2018-12-16T20:25:08.126Z,71.02
2018-12-16T20:27:37.313Z,71.02
2018-12-16T20:30:07.864Z,71.48
2018-12-16T20:32:36.877Z,72.22
2018-12-16T20:35:06.204Z,72.11
2018-12-16T20:37:35.799Z,72.26
2018-12-16T20:40:05.091Z,72.02
2018-12-16T20:42:35.109Z,72.19
2018-12-16T20:45:04.348Z,72.12
2018-12-16T20:47:33.542Z,72.20
2018-12-16T20:50:02.917Z,72.68
2018-12-16T20:52:32.177Z,72.08
2018-12-16T20:55:02.129Z,72.40
2018-12-16T20:57:33.476Z,71.59
2018-12-16T21:00:02.786Z,71.84
2018-12-16T21:02:32.923Z,72.10
2018-12-16T21:05:02.267Z,71.74
2018-12-16T21:07:33.313Z,72.22
2018-12-16T21:10:02.430Z,72.41
2018-12-16T21:12:37.393Z,72.78
2018-12-16T21:15:11.717Z,72.78
2018-12-16T21:17:46.254Z,73.13
2018-12-16T21:20:15.213Z,72.68
2018-12-16T21:22:44.289Z,73.05
2018-12-16T21:25:13.361Z,73.32
2018-12-16T21:27:43.206Z,73.54
2018-12-16T21:30:12.233Z,73.45
2018-12-16T21:32:41.406Z,72.98
2018-12-16T21:35:10.315Z,73.26
2018-12-16T21:37:41.284Z,72.99
2018-12-16T21:40:10.455Z,72.97
2018-12-16T21:42:40.000Z,73.65
2018-12-16T21:45:09.073Z,73.23
2018-12-16T21:47:38.011Z,73.16
2018-12-16T21:50:07.757Z,73.25
2018-12-16T21:52:36.932Z,73.06
2018-12-16T21:55:07.394Z,73.30
2018-12-16T21:57:36.359Z,73.25
2018-12-16T22:00:07.685Z,73.68
2018-12-16T22:02:37.356Z,73.37
2018-12-16T22:05:08.130Z,73.59
2018-12-16T22:07:36.980Z,73.13
2018-12-16T22:10:06.597Z,73.33
2018-12-16T22:12:35.424Z,72.97
2018-12-16T22:15:05.124Z,72.95
2018-12-16T22:17:34.019Z,73.39
2018-12-16T22:20:02.904Z,73.44
2018-12-16T22:22:32.032Z,73.27
2018-12-16T22:25:01.105Z,72.70
2018-12-16T22:27:29.912Z,73.07
2018-12-16T22:29:58.682Z,72.71
2018-12-16T22:32:27.658Z,72.73
2018-12-16T22:34:56.416Z,73.13
2018-12-16T22:37:25.347Z,72.95
2018-12-16T22:39:54.879Z,73.35
2018-12-16T22:42:23.878Z,72.96
2018-12-16T22:44:52.715Z,72.80
2018-12-16T22:47:21.653Z,73.27
2018-12-16T22:49:50.472Z,73.47
2018-12-16T22:52:19.939Z,73.29
2018-12-16T22:54:48.935Z,72.56
2018-12-16T22:57:17.897Z,73.10
2018-12-16T22:59:46.764Z,73.03
2018-12-16T23:02:15.696Z,73.31
2018-12-16T23:04:44.459Z,73.09
2018-12-16T23:07:13.188Z,72.99
2018-12-16T23:09:42.147Z,72.96
2018-12-16T23:12:11.173Z,73.35
2018-12-16T23:14:40.124Z,73.25
2018-12-16T23:17:09.055Z,73.38
2018-12-16T23:19:37.984Z,73.28
2018-12-16T23:22:06.835Z,73.55
2018-12-16T23:24:38.297Z,73.23
2018-12-16T23:27:07.590Z,73.50
2018-12-16T23:29:36.680Z,73.15
2018-12-16T23:32:05.692Z,73.12
2018-12-16T23:34:35.112Z,73.44
2018-12-16T23:37:04.230Z,73.50
2018-12-16T23:39:33.080Z,72.83
2018-12-16T23:42:02.164Z,73.50
2018-12-16T23:44:31.106Z,73.52
2018-12-16T23:47:00.001Z,73.29
2018-12-16T23:49:28.756Z,73.65
2018-12-16T23:51:57.650Z,73.32
2018-12-16T23:54:26.729Z,73.43
2018-12-16T23:56:55.814Z,74.01
2018-12-16T23:59:24.672Z,73.29
